createdAt,value
2019-04-27T00:01:48.347Z,67.2
2019-04-27T00:18:25.236Z,68.4
2019-04-27T00:35:03.742Z,68.4
2019-04-27T00:51:41.145Z,68.8
2019-04-27T01:08:19.182Z,69.6
2019-04-27T01:24:56.884Z,70.0
2019-04-27T01:41:34.620Z,70.8
2019-04-27T01:58:12.179Z,71.6
2019-04-27T02:14:49.608Z,71.6
2019-04-27T02:31:26.901Z,71.6
2019-04-27T02:48:04.246Z,71.6
2019-04-27T03:04:41.672Z,72.0
2019-04-27T03:21:20.043Z,72.0
2019-04-27T03:37:56.669Z,71.6
2019-04-27T03:54:34.001Z,72.0
2019-04-27T04:11:11.290Z,72.4
2019-04-27T04:27:50.646Z,72.4
2019-04-27T04:44:25.688Z,72.4
2019-04-27T05:01:03.156Z,72.4
2019-04-27T05:17:40.734Z,72.0
2019-04-27T05:27:40.708Z,71.6
2019-04-27T05:44:20.665Z,70.8
2019-04-27T06:00:59.527Z,70.0
2019-04-27T06:17:38.737Z,69.2
2019-04-27T06:24:18.625Z,68.4
2019-04-27T06:30:59.438Z,67.6
2019-04-27T06:47:41.453Z,66.0
2019-04-27T07:04:21.063Z,65.6
2019-04-27T07:21:02.158Z,65.6
2019-04-27T07:37:43.097Z,65.6
2019-04-27T07:54:24.389Z,65.6
2019-04-27T08:11:04.944Z,66.4
2019-04-27T08:24:25.214Z,68.4
2019-04-27T08:41:05.399Z,69.6
2019-04-27T08:57:45.162Z,71.2
2019-04-27T09:14:25.959Z,71.6
2019-04-27T09:31:05.799Z,72.0
2019-04-27T09:47:46.924Z,71.6
2019-04-27T10:04:27.630Z,71.6
2019-04-27T10:21:08.668Z,72.8
2019-04-27T10:37:49.121Z,73.2
2019-04-27T10:54:30.187Z,72.8
2019-04-27T11:11:11.375Z,72.0
2019-04-27T11:24:32.346Z,72.4
2019-04-27T11:31:11.982Z,72.0
2019-04-27T11:47:51.722Z,72.4
2019-04-27T12:04:31.478Z,72.0
2019-04-27T12:17:51.378Z,70.4
2019-04-27T12:31:10.382Z,70.0
2019-04-27T12:47:50.117Z,68.8
2019-04-27T13:04:30.015Z,68.0
2019-04-27T13:21:11.305Z,66.8
2019-04-27T13:37:52.764Z,67.2
2019-04-27T13:47:50.353Z,66.8
2019-04-27T14:01:10.867Z,65.6
2019-04-27T14:17:51.875Z,66.0
2019-04-27T14:34:33.523Z,66.0
2019-04-27T14:51:14.235Z,64.8
2019-04-27T15:07:55.506Z,64.8
2019-04-27T15:24:36.879Z,63.6
2019-04-27T15:41:19.577Z,63.6
2019-04-27T15:51:21.132Z,62.8
2019-04-27T15:54:38.588Z,64.0
2019-04-27T15:57:58.475Z,65.2
2019-04-27T16:01:18.348Z,66.0
2019-04-27T16:07:59.225Z,67.6
2019-04-27T16:24:35.853Z,69.6
2019-04-27T16:41:14.229Z,69.6
2019-04-27T16:57:52.847Z,69.6
2019-04-27T17:14:35.081Z,70.0
2019-04-27T17:31:12.916Z,70.4
2019-04-27T17:47:48.434Z,71.2
2019-04-27T18:04:28.770Z,70.8
2019-04-27T18:21:06.135Z,70.8
2019-04-27T18:34:24.903Z,71.6
2019-04-27T18:51:03.248Z,72.8
2019-04-27T19:07:41.404Z,73.2
2019-04-27T19:24:19.722Z,73.6
2019-04-27T19:40:58.162Z,72.8
2019-04-27T19:57:39.197Z,72.8
2019-04-27T20:14:14.102Z,73.2
2019-04-27T20:30:52.025Z,72.8
2019-04-27T20:47:29.666Z,73.6
2019-04-27T21:04:07.045Z,73.6
2019-04-27T21:20:44.390Z,74.0
2019-04-27T21:37:21.523Z,74.0
2019-04-27T21:53:58.743Z,74.8
2019-04-27T22:10:35.811Z,74.8
2019-04-27T22:27:13.813Z,75.2
2019-04-27T22:43:51.463Z,74.8
2019-04-27T23:00:28.153Z,75.2
2019-04-27T23:17:05.816Z,75.2
2019-04-27T23:33:42.660Z,75.2
2019-04-27T23:50:21.890Z,75.6
